Time;durP1;ratioP1;P1;durP2;ratioP2;P2;SDS_P1;SDS_P2;PMS_P1;PMS_P2;Temp;Humidity;BMP_temperature;BMP_pressure;BME280_temperature;BME280_humidity;BME280_pressure;Samples;Min_cycle;Max_cycle;Signal;HPM_P1;HPM_P2
2020/12/21 00:01:55;;;;;;;21.80;13.00;;;2.50;99.90;;;;;;5085402;28;20647;-72
2020/12/21 00:04:22;;;;;;;20.80;12.70;;;2.40;99.90;;;;;;5082533;28;20241;-73
2020/12/21 00:06:52;;;;;;;23.83;13.77;;;2.40;99.90;;;;;;5082664;28;20262;-73
2020/12/21 00:09:19;;;;;;;22.10;12.53;;;2.50;99.90;;;;;;5080555;28;20699;-73
2020/12/21 00:11:46;;;;;;;19.43;11.83;;;2.50;99.90;;;;;;5078270;28;20221;-73
2020/12/21 00:14:13;;;;;;;23.80;12.87;;;2.50;99.90;;;;;;5087275;28;20205;-72
2020/12/21 00:16:40;;;;;;;25.23;13.27;;;2.40;99.90;;;;;;5082793;28;20205;-73
2020/12/21 00:19:08;;;;;;;21.97;12.70;;;2.40;99.90;;;;;;5080016;28;20596;-74
2020/12/21 00:21:35;;;;;;;26.03;13.53;;;2.50;99.90;;;;;;5078966;28;20268;-72
2020/12/21 00:24:01;;;;;;;26.87;14.00;;;2.50;99.90;;;;;;5080245;28;20209;-73
2020/12/21 00:26:28;;;;;;;24.63;13.27;;;2.50;99.90;;;;;;5082421;28;20233;-72
2020/12/21 00:28:54;;;;;;;26.53;14.47;;;2.50;99.90;;;;;;5077132;28;20628;-73
2020/12/21 00:31:22;;;;;;;24.57;13.17;;;2.60;99.90;;;;;;5082159;28;20209;-73
2020/12/21 00:33:48;;;;;;;24.63;12.30;;;2.60;99.90;;;;;;5078012;28;20197;-72
2020/12/21 00:36:16;;;;;;;24.87;13.10;;;2.50;99.90;;;;;;5080880;28;20215;-72
2020/12/21 00:38:42;;;;;;;23.63;12.67;;;2.50;99.90;;;;;;5083128;28;20213;-71
2020/12/21 00:41:09;;;;;;;24.73;13.23;;;2.50;99.90;;;;;;5080543;28;20287;-74
2020/12/21 00:43:36;;;;;;;25.63;13.77;;;2.50;99.90;;;;;;5080077;28;20205;-74
2020/12/21 00:46:03;;;;;;;23.27;13.00;;;2.50;99.90;;;;;;5083066;28;20201;-73
2020/12/21 00:48:30;;;;;;;24.40;12.90;;;2.50;99.90;;;;;;5080080;28;20566;-72
2020/12/21 00:50:57;;;;;;;23.57;13.07;;;2.50;99.90;;;;;;5081556;28;20200;-73
2020/12/21 00:53:24;;;;;;;20.83;12.27;;;2.50;99.90;;;;;;5084496;28;20571;-73
2020/12/21 00:55:53;;;;;;;25.80;13.57;;;2.50;99.90;;;;;;5085323;28;20681;-72
2020/12/21 00:58:20;;;;;;;24.90;12.97;;;2.50;99.90;;;;;;5080773;28;20231;-73
2020/12/21 01:00:46;;;;;;;22.83;12.63;;;2.50;99.90;;;;;;5082383;28;20672;-72
2020/12/21 01:03:15;;;;;;;23.63;13.07;;;2.50;99.90;;;;;;5083633;28;20737;-73
2020/12/21 01:05:41;;;;;;;30.03;13.27;;;2.40;99.90;;;;;;5083363;28;20238;-73
2020/12/21 01:08:08;;;;;;;22.40;12.67;;;2.40;99.90;;;;;;5081644;28;20212;-73
2020/12/21 01:10:35;;;;;;;24.23;13.27;;;2.40;99.90;;;;;;5078677;28;20603;-73
2020/12/21 01:13:01;;;;;;;25.17;13.47;;;2.40;99.90;;;;;;5081982;28;20235;-72
2020/12/21 01:15:28;;;;;;;25.47;12.73;;;2.40;99.90;;;;;;5079636;28;20221;-73
2020/12/21 01:17:55;;;;;;;24.70;12.97;;;2.40;99.90;;;;;;5081097;28;20207;-72
2020/12/21 01:20:21;;;;;;;24.87;13.10;;;2.30;99.90;;;;;;5082961;28;20738;-73
2020/12/21 01:22:47;;;;;;;24.17;13.43;;;2.30;99.90;;;;;;5086605;28;20645;-73
2020/12/21 01:25:14;;;;;;;24.57;13.77;;;2.30;99.90;;;;;;5085652;28;20277;-72
2020/12/21 01:27:41;;;;;;;23.87;12.90;;;2.30;99.90;;;;;;5082688;28;20286;-72
2020/12/21 01:30:07;;;;;;;20.23;11.93;;;2.30;99.90;;;;;;5081675;28;20236;-73
2020/12/21 01:32:34;;;;;;;25.27;12.30;;;2.30;99.90;;;;;;5083250;28;20273;-72
2020/12/21 01:35:00;;;;;;;21.00;11.23;;;2.40;99.90;;;;;;5085792;28;20691;-72
2020/12/21 01:37:27;;;;;;;19.50;11.17;;;2.40;99.90;;;;;;5084185;28;20646;-73
2020/12/21 01:39:53;;;;;;;20.23;12.13;;;2.40;99.90;;;;;;5085877;28;20312;-72
2020/12/21 01:42:19;;;;;;;19.90;11.60;;;2.40;99.90;;;;;;5083318;28;20580;-72
2020/12/21 01:44:48;;;;;;;22.67;12.43;;;2.50;99.90;;;;;;5085834;28;20228;-72
2020/12/21 01:47:15;;;;;;;18.33;11.43;;;2.50;99.90;;;;;;5083391;28;20209;-73
2020/12/21 01:49:41;;;;;;;16.70;10.00;;;2.60;99.90;;;;;;5077713;28;20236;-72
2020/12/21 01:52:08;;;;;;;19.37;11.10;;;2.60;99.90;;;;;;5083414;28;20200;-72
2020/12/21 01:54:35;;;;;;;20.60;11.73;;;2.60;99.90;;;;;;5087703;28;20677;-73
2020/12/21 01:57:01;;;;;;;17.80;10.57;;;2.60;99.90;;;;;;5085633;28;20208;-74
2020/12/21 01:59:27;;;;;;;22.33;10.83;;;2.70;99.90;;;;;;5080762;28;20236;-72
2020/12/21 02:01:56;;;;;;;20.93;11.13;;;2.70;99.90;;;;;;5080788;28;20205;-72
2020/12/21 02:04:22;;;;;;;18.80;10.90;;;2.70;99.90;;;;;;5080167;28;20237;-73
2020/12/21 02:06:49;;;;;;;17.77;10.43;;;2.80;99.90;;;;;;5077451;28;20749;-73
2020/12/21 02:09:15;;;;;;;18.10;10.17;;;2.70;99.90;;;;;;5082260;28;20213;-73
2020/12/21 02:11:43;;;;;;;18.33;10.30;;;2.70;99.90;;;;;;5075389;28;20221;-73
2020/12/21 02:14:10;;;;;;;21.03;11.57;;;2.70;99.90;;;;;;5078327;28;20231;-72
2020/12/21 02:16:37;;;;;;;21.93;10.80;;;2.70;99.90;;;;;;5076463;28;20266;-72
2020/12/21 02:19:04;;;;;;;18.63;11.20;;;2.70;99.90;;;;;;5075248;28;20558;-72
2020/12/21 02:21:32;;;;;;;17.97;10.17;;;2.80;99.90;;;;;;5077794;28;20219;-71
2020/12/21 02:23:58;;;;;;;20.97;11.57;;;2.80;99.90;;;;;;5077952;28;20209;-72
2020/12/21 02:26:25;;;;;;;17.27;10.60;;;2.80;99.90;;;;;;5086462;28;20264;-72
2020/12/21 02:28:52;;;;;;;20.20;11.63;;;2.70;99.90;;;;;;5083109;28;20208;-71
2020/12/21 02:31:18;;;;;;;22.30;12.07;;;2.70;99.90;;;;;;5082056;28;20216;-72
2020/12/21 02:33:45;;;;;;;18.83;10.87;;;2.80;99.90;;;;;;5077147;28;20296;-72
2020/12/21 02:36:12;;;;;;;16.93;10.63;;;2.80;99.90;;;;;;5076725;28;20272;-72
2020/12/21 02:38:39;;;;;;;21.30;11.57;;;2.80;99.90;;;;;;5078394;28;20244;-72
2020/12/21 02:41:05;;;;;;;19.17;11.43;;;2.80;99.90;;;;;;5078380;28;21007;-71
2020/12/21 02:43:32;;;;;;;22.40;11.43;;;2.80;99.90;;;;;;5079590;28;20219;-72
2020/12/21 02:45:58;;;;;;;17.53;11.43;;;2.80;99.90;;;;;;5079766;28;20650;-73
2020/12/21 02:48:25;;;;;;;20.00;11.03;;;2.80;99.90;;;;;;5076400;28;20209;-74
2020/12/21 02:50:51;;;;;;;19.47;10.27;;;2.70;99.90;;;;;;5082193;28;20201;-73
2020/12/21 02:53:19;;;;;;;19.87;10.73;;;2.80;99.90;;;;;;5077849;28;20208;-73
2020/12/21 02:55:46;;;;;;;22.20;11.57;;;2.70;99.90;;;;;;5080160;28;20295;-71
2020/12/21 02:58:12;;;;;;;17.13;10.33;;;2.70;99.90;;;;;;5073842;28;20235;-72
2020/12/21 03:00:39;;;;;;;18.87;10.63;;;2.60;99.90;;;;;;5074852;28;20219;-72
2020/12/21 03:03:06;;;;;;;18.53;10.87;;;2.60;99.90;;;;;;5075640;28;20585;-71
2020/12/21 03:05:33;;;;;;;21.30;11.50;;;2.60;99.90;;;;;;5076361;28;20328;-72
2020/12/21 03:08:01;;;;;;;20.37;12.03;;;2.60;99.90;;;;;;5076942;28;20207;-72
2020/12/21 03:10:28;;;;;;;20.00;11.30;;;2.70;99.90;;;;;;5075810;28;20271;-73
2020/12/21 03:12:55;;;;;;;23.57;12.70;;;2.70;99.90;;;;;;5080789;28;20320;-72
2020/12/21 03:15:21;;;;;;;18.87;11.33;;;2.70;99.90;;;;;;5075922;28;20336;-72
2020/12/21 03:17:48;;;;;;;21.03;12.10;;;2.70;99.90;;;;;;5075082;28;20751;-73
2020/12/21 03:20:14;;;;;;;21.33;11.27;;;2.70;99.90;;;;;;5076287;28;20689;-72
2020/12/21 03:22:40;;;;;;;22.10;12.20;;;2.70;99.90;;;;;;5074976;28;20208;-72
2020/12/21 03:25:07;;;;;;;19.10;11.20;;;2.80;99.90;;;;;;5078704;28;20250;-73
2020/12/21 03:27:35;;;;;;;24.83;12.63;;;2.70;99.90;;;;;;5081264;28;20288;-72
2020/12/21 03:30:03;;;;;;;21.30;12.93;;;2.70;99.90;;;;;;5077584;28;20200;-73
2020/12/21 03:32:29;;;;;;;24.57;12.40;;;2.80;99.90;;;;;;5081369;28;20291;-72
2020/12/21 03:34:56;;;;;;;21.37;11.07;;;2.80;99.90;;;;;;5081804;28;20211;-73
2020/12/21 03:37:22;;;;;;;21.90;12.40;;;2.80;99.90;;;;;;5078505;28;20683;-73
2020/12/21 03:39:49;;;;;;;21.47;13.00;;;2.80;99.90;;;;;;5075424;28;20232;-72
2020/12/21 03:42:15;;;;;;;22.43;13.60;;;2.80;99.90;;;;;;5076983;28;20229;-73
2020/12/21 03:44:42;;;;;;;22.07;12.93;;;2.80;99.90;;;;;;5078098;28;20701;-73
2020/12/21 03:47:09;;;;;;;24.63;12.33;;;2.80;99.90;;;;;;5085100;28;20239;-73
2020/12/21 03:49:36;;;;;;;20.73;12.07;;;2.80;99.90;;;;;;5078432;28;20290;-73
2020/12/21 03:52:02;;;;;;;22.93;12.90;;;2.80;99.90;;;;;;5073935;28;20634;-73
2020/12/21 03:54:29;;;;;;;21.97;12.77;;;2.80;99.90;;;;;;5081422;28;20231;-73
2020/12/21 03:56:55;;;;;;;19.33;11.80;;;2.80;99.90;;;;;;5083951;28;20217;-73
2020/12/21 03:59:21;;;;;;;24.77;13.30;;;2.80;99.90;;;;;;5077540;28;20225;-73
2020/12/21 04:01:48;;;;;;;24.97;13.60;;;2.90;99.90;;;;;;5074762;28;20205;-73
2020/12/21 04:04:15;;;;;;;24.97;13.67;;;2.90;99.90;;;;;;5074724;28;20244;-73
2020/12/21 04:06:41;;;;;;;21.80;13.30;;;2.80;99.90;;;;;;5081206;28;20318;-73
2020/12/21 04:09:08;;;;;;;22.70;12.37;;;2.80;99.90;;;;;;5077083;28;20197;-73
2020/12/21 04:11:34;;;;;;;23.60;12.60;;;2.80;99.90;;;;;;5074210;28;20721;-73
2020/12/21 04:14:00;;;;;;;26.77;14.27;;;2.80;99.90;;;;;;5076490;28;20197;-73
2020/12/21 04:16:27;;;;;;;22.33;12.60;;;2.80;99.90;;;;;;5084412;28;20243;-72
2020/12/21 04:18:53;;;;;;;25.17;13.63;;;2.90;99.90;;;;;;5077215;28;20561;-73
2020/12/21 04:21:20;;;;;;;22.43;13.77;;;2.70;99.90;;;;;;5082626;28;20240;-73
2020/12/21 04:23:47;;;;;;;24.87;13.57;;;2.80;99.90;;;;;;5082735;28;20285;-73
2020/12/21 04:26:13;;;;;;;26.93;13.67;;;2.80;99.90;;;;;;5080823;28;20216;-73
2020/12/21 04:28:40;;;;;;;23.07;13.57;;;2.80;99.90;;;;;;5080532;28;20233;-72
2020/12/21 04:31:07;;;;;;;23.80;13.27;;;2.70;99.90;;;;;;5079344;28;20193;-73
2020/12/21 04:33:34;;;;;;;26.00;14.43;;;2.80;99.90;;;;;;5077910;28;20282;-73
2020/12/21 04:36:01;;;;;;;25.10;13.83;;;2.70;99.90;;;;;;5076273;28;20201;-72
2020/12/21 04:38:28;;;;;;;25.30;14.50;;;2.70;99.90;;;;;;5080862;28;20205;-73
2020/12/21 04:40:57;;;;;;;27.47;14.13;;;2.70;99.90;;;;;;5078972;28;20258;-72
2020/12/21 04:43:24;;;;;;;27.43;15.17;;;2.70;99.90;;;;;;5084579;28;20303;-73
2020/12/21 04:45:53;;;;;;;26.77;13.37;;;2.70;99.90;;;;;;5082685;28;20213;-73
2020/12/21 04:48:23;;;;;;;26.83;15.07;;;2.70;99.90;;;;;;5090541;28;20313;-73
2020/12/21 04:50:53;;;;;;;27.97;13.50;;;2.60;99.90;;;;;;5090395;28;20289;-74
2020/12/21 04:53:20;;;;;;;27.70;15.00;;;2.70;99.90;;;;;;5091965;28;20260;-74
2020/12/21 04:55:48;;;;;;;24.40;14.60;;;2.60;99.90;;;;;;5096353;28;20626;-73
2020/12/21 04:58:16;;;;;;;31.50;16.07;;;2.60;99.90;;;;;;5091036;28;20296;-72
2020/12/21 05:00:43;;;;;;;27.93;15.03;;;2.60;99.90;;;;;;5077171;28;20772;-72
2020/12/21 05:03:10;;;;;;;29.10;15.10;;;2.60;99.90;;;;;;5077972;28;20205;-73
2020/12/21 05:05:37;;;;;;;28.67;15.73;;;2.70;99.90;;;;;;5085416;28;20236;-71
2020/12/21 05:08:12;;;;;;;28.03;14.87;;;2.60;99.90;;;;;;5081530;28;20269;-73
2020/12/21 05:10:39;;;;;;;24.93;14.13;;;2.60;99.90;;;;;;5095731;28;20635;-72
2020/12/21 05:13:07;;;;;;;29.23;15.13;;;2.60;99.90;;;;;;5078784;28;20359;-73
2020/12/21 05:15:34;;;;;;;26.73;15.33;;;2.60;99.90;;;;;;5076709;28;20725;-72
2020/12/21 05:18:09;;;;;;;29.20;16.90;;;2.60;99.90;;;;;;5076637;28;20273;-72
2020/12/21 05:20:37;;;;;;;29.73;15.73;;;2.70;99.90;;;;;;5089049;28;20306;-71
2020/12/21 05:23:04;;;;;;;27.40;15.03;;;2.60;99.90;;;;;;5090837;28;20292;-71
2020/12/21 05:25:31;;;;;;;29.93;16.83;;;2.60;99.90;;;;;;5095483;28;20211;-72
2020/12/21 05:28:13;;;;;;;31.10;16.10;;;2.60;99.90;;;;;;5096338;28;20211;-71
2020/12/21 05:30:51;;;;;;;30.03;16.67;;;2.60;99.90;;;;;;5081754;28;20200;-72
2020/12/21 05:33:18;;;;;;;32.27;16.53;;;2.70;99.90;;;;;;5077658;28;20283;-71
2020/12/21 05:35:44;;;;;;;28.57;15.17;;;2.60;99.90;;;;;;5084140;28;20205;-74
2020/12/21 05:38:20;;;;;;;34.23;16.60;;;2.70;99.90;;;;;;5089976;28;20299;-72
2020/12/21 05:40:47;;;;;;;29.37;15.87;;;2.70;99.90;;;;;;5076406;28;20219;-73
2020/12/21 05:43:27;;;;;;;29.53;15.80;;;2.60;99.90;;;;;;5085095;28;20273;-73
2020/12/21 05:46:05;;;;;;;31.67;16.30;;;2.60;99.90;;;;;;5096156;28;20207;-72
2020/12/21 05:48:33;;;;;;;29.10;17.07;;;2.60;99.90;;;;;;5096584;28;20208;-72
2020/12/21 05:51:03;;;;;;;32.27;16.13;;;2.60;99.90;;;;;;5095749;28;20279;-73
2020/12/21 05:53:35;;;;;;;31.67;16.17;;;2.60;99.90;;;;;;5089561;28;20209;-72
2020/12/21 05:56:02;;;;;;;32.63;17.10;;;2.60;99.90;;;;;;5093664;28;20215;-72
2020/12/21 05:58:32;;;;;;;31.67;16.80;;;2.60;99.90;;;;;;5089350;28;20677;-72
2020/12/21 06:01:00;;;;;;;32.10;16.93;;;2.60;99.90;;;;;;5084367;28;20224;-73
2020/12/21 06:03:40;;;;;;;33.87;17.07;;;2.60;99.90;;;;;;5089012;28;20304;-73
2020/12/21 06:06:09;;;;;;;34.00;17.00;;;2.60;99.90;;;;;;5081433;28;20556;-73
2020/12/21 06:08:36;;;;;;;35.37;16.60;;;2.60;99.90;;;;;;5087550;28;20237;-73
2020/12/21 06:11:19;;;;;;;34.50;17.87;;;2.60;99.90;;;;;;5075373;28;20233;-71
2020/12/21 06:13:53;;;;;;;32.10;16.17;;;2.50;99.90;;;;;;5080922;28;20204;-73
2020/12/21 06:16:20;;;;;;;37.07;18.03;;;2.60;99.90;;;;;;5081748;28;20292;-73
2020/12/21 06:18:57;;;;;;;34.73;17.73;;;2.60;99.90;;;;;;5087456;28;20245;-73
2020/12/21 06:21:24;;;;;;;34.63;17.90;;;2.60;99.90;;;;;;5085271;28;20315;-74
2020/12/21 06:23:51;;;;;;;41.03;18.77;;;2.60;99.90;;;;;;5084370;28;20250;-73
2020/12/21 06:26:17;;;;;;;33.43;17.13;;;2.70;99.90;;;;;;5081738;28;20209;-73
2020/12/21 06:28:44;;;;;;;35.47;17.63;;;2.70;99.90;;;;;;5078636;28;20681;-73
2020/12/21 06:31:19;;;;;;;37.53;17.00;;;2.70;99.90;;;;;;5092172;28;20207;-73
2020/12/21 06:33:46;;;;;;;34.90;17.70;;;2.60;99.90;;;;;;5090966;28;20747;-73
2020/12/21 06:36:13;;;;;;;34.60;17.30;;;2.60;99.90;;;;;;5093141;28;20213;-73
2020/12/21 06:38:48;;;;;;;36.87;18.77;;;2.60;99.90;;;;;;5096413;28;20212;-73
2020/12/21 06:41:16;;;;;;;31.87;17.27;;;2.70;99.90;;;;;;5081597;28;20237;-73
2020/12/21 06:43:54;;;;;;;37.57;18.03;;;2.60;99.90;;;;;;5094935;28;20207;-73
2020/12/21 06:46:21;;;;;;;32.77;18.03;;;2.60;99.90;;;;;;5084753;28;20208;-73
2020/12/21 06:49:01;;;;;;;34.30;18.10;;;2.60;99.90;;;;;;5090883;28;20212;-72
2020/12/21 06:51:27;;;;;;;37.67;17.87;;;2.60;99.90;;;;;;5086498;28;20226;-73
2020/12/21 06:53:58;;;;;;;32.80;17.33;;;2.60;99.90;;;;;;5085275;28;20304;-73
2020/12/21 06:56:26;;;;;;;35.87;17.70;;;2.70;99.90;;;;;;5075361;28;20209;-72
2020/12/21 06:58:54;;;;;;;39.77;18.73;;;2.70;99.90;;;;;;5075800;28;20209;-73
2020/12/21 07:01:22;;;;;;;33.37;17.83;;;2.60;99.90;;;;;;5075403;28;20229;-72
2020/12/21 07:03:49;;;;;;;36.57;18.07;;;2.70;99.90;;;;;;5080011;28;20271;-73
2020/12/21 07:06:15;;;;;;;36.13;18.37;;;2.70;99.90;;;;;;5085538;28;20279;-70
2020/12/21 07:08:43;;;;;;;41.00;19.13;;;2.70;99.90;;;;;;5085228;28;20306;-72
2020/12/21 07:11:16;;;;;;;33.60;17.77;;;2.70;99.90;;;;;;5084564;28;20177;-73
2020/12/21 07:13:43;;;;;;;37.00;19.23;;;2.70;99.90;;;;;;5075349;28;20267;-72
2020/12/21 07:16:10;;;;;;;36.63;17.80;;;2.70;99.90;;;;;;5075623;28;20209;-72
2020/12/21 07:18:37;;;;;;;36.20;19.30;;;2.70;99.90;;;;;;5083026;28;20212;-73
2020/12/21 07:21:07;;;;;;;37.53;18.63;;;2.70;99.90;;;;;;5074614;28;20247;-74
2020/12/21 07:23:34;;;;;;;32.93;18.03;;;2.70;99.90;;;;;;5075294;28;20205;-72
2020/12/21 07:26:01;;;;;;;36.63;18.50;;;2.70;99.90;;;;;;5087023;28;20201;-72
2020/12/21 07:28:28;;;;;;;36.73;16.97;;;2.70;99.90;;;;;;5079212;28;20209;-72
2020/12/21 07:31:04;;;;;;;38.23;17.93;;;2.70;99.90;;;;;;5091130;28;20232;-72
2020/12/21 07:33:30;;;;;;;35.30;17.57;;;2.70;99.90;;;;;;5083735;28;20542;-76
2020/12/21 07:35:58;;;;;;;33.63;17.57;;;2.70;99.90;;;;;;5085383;28;20205;-74
2020/12/21 07:38:25;;;;;;;40.93;18.60;;;2.70;99.90;;;;;;5089291;28;20200;-76
2020/12/21 07:40:54;;;;;;;35.57;18.07;;;2.70;99.90;;;;;;5075922;28;20256;-76
2020/12/21 07:43:26;;;;;;;34.30;18.43;;;2.70;99.90;;;;;;5088573;28;20259;-78
2020/12/21 07:46:11;;;;;;;34.97;17.43;;;2.70;99.90;;;;;;5090004;28;20212;-80
2020/12/21 07:48:38;;;;;;;34.67;17.87;;;2.70;99.90;;;;;;5093332;28;20237;-83
2020/12/21 07:51:08;;;;;;;33.23;17.37;;;2.70;99.90;;;;;;5086905;28;20237;-77
2020/12/21 07:53:38;;;;;;;35.00;17.27;;;2.70;99.90;;;;;;5098819;28;20698;-79
2020/12/21 07:56:04;;;;;;;36.17;17.33;;;2.70;99.90;;;;;;5088348;28;20212;-77
2020/12/21 07:58:35;;;;;;;32.83;17.53;;;2.70;99.90;;;;;;5099568;28;20201;-82
2020/12/21 08:01:02;;;;;;;34.53;17.23;;;2.70;99.90;;;;;;5103817;28;20682;-77
2020/12/21 08:03:34;;;;;;;33.80;16.87;;;2.70;99.90;;;;;;5101899;28;20205;-78
2020/12/21 08:06:08;;;;;;;38.70;19.30;;;2.80;99.90;;;;;;5111974;28;20211;-79
2020/12/21 08:08:40;;;;;;;37.03;17.10;;;2.80;99.90;;;;;;5104006;28;20259;-81
2020/12/21 08:11:13;;;;;;;40.30;19.43;;;2.90;99.90;;;;;;5098860;28;20215;-80
2020/12/21 08:13:44;;;;;;;36.60;18.73;;;2.90;99.90;;;;;;5095380;28;20201;-82
2020/12/21 08:16:11;;;;;;;35.27;17.67;;;3.00;99.90;;;;;;5099228;28;20201;-79
2020/12/21 08:18:38;;;;;;;34.77;18.40;;;3.00;99.90;;;;;;5105994;28;20197;-76
2020/12/21 08:21:04;;;;;;;30.37;16.63;;;3.00;99.90;;;;;;5094577;28;20297;-76
2020/12/21 08:23:33;;;;;;;34.00;18.20;;;3.00;99.90;;;;;;5096352;28;20256;-77
2020/12/21 08:26:00;;;;;;;40.30;19.47;;;3.10;99.90;;;;;;5101582;28;20589;-75
2020/12/21 08:28:35;;;;;;;32.63;17.27;;;3.10;99.90;;;;;;5101627;28;20207;-75
2020/12/21 08:31:13;;;;;;;34.73;18.07;;;3.10;99.90;;;;;;5104007;28;20210;-76
2020/12/21 08:33:55;;;;;;;36.17;18.80;;;3.10;99.90;;;;;;5096066;28;20642;-75
2020/12/21 08:36:24;;;;;;;36.40;18.50;;;3.10;99.90;;;;;;5091932;28;20232;-75
2020/12/21 08:38:52;;;;;;;32.03;17.80;;;3.20;99.90;;;;;;5089015;28;20246;-73
2020/12/21 08:41:20;;;;;;;33.80;18.33;;;3.20;99.90;;;;;;5093890;28;20244;-75
2020/12/21 08:43:47;;;;;;;34.93;17.73;;;3.20;99.90;;;;;;5084153;28;20200;-73
2020/12/21 08:46:14;;;;;;;37.50;17.23;;;3.10;99.90;;;;;;5086932;28;20252;-73
2020/12/21 08:48:42;;;;;;;32.23;17.77;;;3.10;99.90;;;;;;5094411;28;20673;-73
2020/12/21 08:51:09;;;;;;;34.43;17.97;;;3.10;99.90;;;;;;5089803;28;20204;-73
2020/12/21 08:53:36;;;;;;;34.63;17.93;;;3.10;99.90;;;;;;5089014;28;20269;-75
2020/12/21 08:56:12;;;;;;;35.57;18.97;;;3.00;99.90;;;;;;5090485;28;20273;-73
2020/12/21 08:58:39;;;;;;;40.77;17.87;;;3.00;99.90;;;;;;5078842;28;20209;-76
2020/12/21 09:01:06;;;;;;;36.00;19.00;;;3.00;99.90;;;;;;5079736;28;20221;-75
2020/12/21 09:03:33;;;;;;;33.43;19.63;;;3.00;99.90;;;;;;5084811;28;20564;-74
2020/12/21 09:05:59;;;;;;;34.93;18.07;;;3.00;99.90;;;;;;5080447;28;20232;-74
2020/12/21 09:08:27;;;;;;;39.10;19.83;;;3.00;99.90;;;;;;5076961;28;20214;-74
2020/12/21 09:10:54;;;;;;;37.80;18.67;;;3.00;99.90;;;;;;5084296;28;20209;-76
2020/12/21 09:13:22;;;;;;;40.03;19.67;;;3.00;99.90;;;;;;5085107;28;20296;-76
2020/12/21 09:15:48;;;;;;;35.37;19.17;;;3.00;99.90;;;;;;5086877;28;20647;-75
2020/12/21 09:18:15;;;;;;;40.93;19.73;;;3.10;99.90;;;;;;5084791;28;20212;-76
2020/12/21 09:20:46;;;;;;;38.00;19.07;;;3.10;99.90;;;;;;5087509;28;20225;-75
2020/12/21 09:23:12;;;;;;;38.27;19.87;;;3.10;99.90;;;;;;5080670;28;20544;-74
2020/12/21 09:25:39;;;;;;;36.60;18.40;;;3.10;99.90;;;;;;5082348;28;20296;-74
2020/12/21 09:28:06;;;;;;;38.90;19.40;;;3.20;99.90;;;;;;5083330;28;20204;-71
2020/12/21 09:30:35;;;;;;;38.80;18.23;;;3.10;99.90;;;;;;5081083;28;20281;-76
2020/12/21 09:33:02;;;;;;;39.90;18.93;;;3.10;99.90;;;;;;5080501;28;20646;-74
2020/12/21 09:35:29;;;;;;;37.83;19.87;;;3.10;99.90;;;;;;5092938;28;20233;-74
2020/12/21 09:37:55;;;;;;;35.23;18.33;;;3.20;99.90;;;;;;5083679;28;20205;-74
2020/12/21 09:40:22;;;;;;;37.43;18.63;;;3.20;99.90;;;;;;5090587;28;20256;-75
2020/12/21 09:42:49;;;;;;;38.07;18.63;;;3.30;99.90;;;;;;5077000;28;20572;-74
2020/12/21 09:45:16;;;;;;;36.70;18.60;;;3.20;99.90;;;;;;5078101;28;20296;-74
2020/12/21 09:47:44;;;;;;;36.30;19.27;;;3.20;99.90;;;;;;5086614;28;20626;-74
2020/12/21 09:50:11;;;;;;;32.60;18.80;;;3.20;99.90;;;;;;5086233;28;20247;-74
2020/12/21 09:52:38;;;;;;;35.23;19.03;;;3.20;99.90;;;;;;5096865;28;20634;-73
2020/12/21 09:55:05;;;;;;;36.03;18.33;;;3.30;99.90;;;;;;5088267;28;20205;-75
2020/12/21 09:57:32;;;;;;;39.30;20.13;;;3.30;99.90;;;;;;5089204;28;20624;-74
2020/12/21 09:59:58;;;;;;;33.57;19.03;;;3.30;99.90;;;;;;5096679;28;20315;-75
2020/12/21 10:02:25;;;;;;;35.80;19.13;;;3.30;99.90;;;;;;5090622;28;20307;-75
2020/12/21 10:04:52;;;;;;;38.10;19.67;;;3.30;99.90;;;;;;5092018;28;20296;-72
2020/12/21 10:07:19;;;;;;;34.73;19.00;;;3.30;99.90;;;;;;5096769;28;20291;-73
2020/12/21 10:09:45;;;;;;;38.50;19.17;;;3.40;99.90;;;;;;5083005;28;20232;-72
2020/12/21 10:12:11;;;;;;;33.53;19.00;;;3.40;99.90;;;;;;5075664;28;20227;-74
2020/12/21 10:14:38;;;;;;;36.63;19.83;;;3.40;99.90;;;;;;5082418;28;20197;-72
2020/12/21 10:17:04;;;;;;;36.53;18.33;;;3.40;99.90;;;;;;5083418;28;20203;-75
2020/12/21 10:19:31;;;;;;;35.27;19.20;;;3.40;99.90;;;;;;5079938;28;20209;-73
2020/12/21 10:21:58;;;;;;;35.30;18.93;;;3.40;99.90;;;;;;5085154;28;20308;-73
2020/12/21 10:24:24;;;;;;;39.43;19.60;;;3.40;99.90;;;;;;5088751;28;20212;-74
2020/12/21 10:26:52;;;;;;;35.83;19.70;;;3.50;99.90;;;;;;5097550;28;20287;-78
2020/12/21 10:29:18;;;;;;;38.33;20.03;;;3.50;99.90;;;;;;5082640;28;20212;-77
2020/12/21 10:31:45;;;;;;;37.50;19.30;;;3.50;99.90;;;;;;5083048;28;20205;-77
2020/12/21 10:34:11;;;;;;;37.37;20.63;;;3.50;99.90;;;;;;5079569;28;20292;-76
2020/12/21 10:36:38;;;;;;;35.00;19.83;;;3.60;99.90;;;;;;5085202;28;20677;-76
2020/12/21 10:39:06;;;;;;;39.10;20.33;;;3.60;99.90;;;;;;5078216;28;20237;-75
2020/12/21 10:41:32;;;;;;;35.43;19.13;;;3.60;99.90;;;;;;5079950;28;20229;-74
2020/12/21 10:43:59;;;;;;;33.97;18.83;;;3.60;99.90;;;;;;5085129;28;20255;-74
2020/12/21 10:46:25;;;;;;;35.73;20.63;;;3.70;99.90;;;;;;5080895;28;20196;-75
2020/12/21 10:48:52;;;;;;;40.47;18.50;;;3.70;99.90;;;;;;5077693;28;20205;-76
2020/12/21 10:51:26;;;;;;;35.17;18.67;;;3.70;99.90;;;;;;5076393;28;20217;-74
2020/12/21 10:53:52;;;;;;;34.73;19.67;;;3.70;99.90;;;;;;5087841;28;20197;-76
2020/12/21 10:56:20;;;;;;;37.43;20.57;;;3.70;99.90;;;;;;5084936;28;20554;-77
2020/12/21 10:58:47;;;;;;;32.63;18.07;;;3.80;99.90;;;;;;5088133;28;20275;-76
2020/12/21 11:01:14;;;;;;;36.20;19.77;;;3.90;99.90;;;;;;5096234;28;20688;-74
2020/12/21 11:03:41;;;;;;;36.43;19.87;;;3.90;99.90;;;;;;5087795;28;20231;-76
2020/12/21 11:06:08;;;;;;;39.53;20.57;;;3.90;99.90;;;;;;5088706;28;20197;-76
2020/12/21 11:08:34;;;;;;;36.97;20.67;;;3.90;99.90;;;;;;5094889;28;20204;-75
2020/12/21 11:11:00;;;;;;;34.97;19.57;;;4.00;99.90;;;;;;5091551;28;20236;-74
2020/12/21 11:13:28;;;;;;;36.60;20.93;;;4.00;99.90;;;;;;5090150;28;20208;-77
2020/12/21 11:15:54;;;;;;;40.83;20.83;;;4.00;99.90;;;;;;5081848;28;20221;-75
2020/12/21 11:18:21;;;;;;;37.93;20.87;;;4.00;99.90;;;;;;5091262;28;20230;-74
2020/12/21 11:20:47;;;;;;;36.63;18.90;;;4.00;99.90;;;;;;5094628;28;20259;-74
2020/12/21 11:23:14;;;;;;;40.10;20.30;;;4.10;99.90;;;;;;5091697;28;20209;-74
2020/12/21 11:25:41;;;;;;;37.73;20.30;;;4.10;99.90;;;;;;5091663;28;20660;-75
2020/12/21 11:28:08;;;;;;;37.37;19.00;;;4.10;99.90;;;;;;5093346;28;20228;-74
2020/12/21 11:30:35;;;;;;;38.10;19.93;;;4.20;99.90;;;;;;5094239;28;20209;-75
2020/12/21 11:33:01;;;;;;;33.77;19.10;;;4.20;99.90;;;;;;5084652;28;20205;-74
2020/12/21 11:35:28;;;;;;;31.83;19.10;;;4.30;99.90;;;;;;5088668;28;20291;-75
2020/12/21 11:37:56;;;;;;;38.30;20.07;;;4.30;99.90;;;;;;5093679;28;20230;-74
2020/12/21 11:40:22;;;;;;;33.73;19.07;;;4.30;99.90;;;;;;5090711;28;20705;-75
2020/12/21 11:42:48;;;;;;;39.83;20.37;;;4.40;99.90;;;;;;5086477;28;20310;-73
2020/12/21 11:45:15;;;;;;;37.97;20.03;;;4.40;99.90;;;;;;5094207;28;20232;-74
2020/12/21 11:47:42;;;;;;;36.37;19.77;;;4.40;99.90;;;;;;5092341;28;20339;-74
2020/12/21 11:50:09;;;;;;;37.30;19.73;;;4.40;99.90;;;;;;5086925;28;20288;-75
2020/12/21 11:52:35;;;;;;;35.77;19.00;;;4.50;99.90;;;;;;5089021;28;20268;-76
2020/12/21 11:55:02;;;;;;;34.30;19.57;;;4.50;99.90;;;;;;5093173;28;20212;-73
2020/12/21 11:57:29;;;;;;;39.47;19.90;;;4.50;99.90;;;;;;5080294;28;20216;-73
2020/12/21 11:59:56;;;;;;;37.90;20.20;;;4.50;99.90;;;;;;5075867;28;20213;-75
2020/12/21 12:02:22;;;;;;;35.10;19.37;;;4.50;99.90;;;;;;5079861;28;20237;-74
2020/12/21 12:04:50;;;;;;;37.73;20.00;;;4.50;99.90;;;;;;5081874;28;20319;-76
2020/12/21 12:07:16;;;;;;;34.00;19.43;;;4.60;99.90;;;;;;5081729;28;20209;-73
2020/12/21 12:09:45;;;;;;;34.10;19.83;;;4.60;99.90;;;;;;5091614;28;20201;-74
2020/12/21 12:12:11;;;;;;;33.10;18.43;;;4.60;99.90;;;;;;5079869;28;20221;-74
2020/12/21 12:14:37;;;;;;;34.63;19.63;;;4.50;99.90;;;;;;5082380;28;20209;-73
2020/12/21 12:17:04;;;;;;;38.30;20.37;;;4.50;99.90;;;;;;5076844;28;20209;-73
2020/12/21 12:19:31;;;;;;;33.83;19.40;;;4.50;99.90;;;;;;5093160;28;20335;-73
2020/12/21 12:21:58;;;;;;;41.83;19.50;;;4.60;99.90;;;;;;5089500;28;20311;-74
2020/12/21 12:24:24;;;;;;;33.00;18.90;;;4.50;99.90;;;;;;5089853;28;20692;-73
2020/12/21 12:26:52;;;;;;;35.57;19.27;;;4.50;99.90;;;;;;5094840;28;20231;-75
2020/12/21 12:29:19;;;;;;;36.73;19.33;;;4.50;99.90;;;;;;5088829;28;20204;-77
2020/12/21 12:31:46;;;;;;;32.80;18.67;;;4.50;99.90;;;;;;5088207;28;20744;-73
2020/12/21 12:34:12;;;;;;;32.17;18.60;;;4.50;99.90;;;;;;5085318;28;20292;-72
2020/12/21 12:36:43;;;;;;;31.10;18.43;;;4.50;99.90;;;;;;5098254;28;20739;-75
2020/12/21 12:39:11;;;;;;;31.43;18.30;;;4.50;99.90;;;;;;5092719;28;20554;-72